sensor_id;sensor_type;location;lat;lon;timestamp;temperature;humidity
44863;DHT22;30597;49.628;10.850;2023-05-16T00:01:04;22.40;56.20
44863;DHT22;30597;49.628;10.850;2023-05-16T00:03:29;22.40;55.90
44863;DHT22;30597;49.628;10.850;2023-05-16T00:05:55;22.40;56.00
44863;DHT22;30597;49.628;10.850;2023-05-16T00:08:22;22.40;55.90
44863;DHT22;30597;49.628;10.850;2023-05-16T00:10:47;22.40;56.60
44863;DHT22;30597;49.628;10.850;2023-05-16T00:13:13;22.40;56.00
44863;DHT22;30597;49.628;10.850;2023-05-16T00:15:39;22.40;56.10
44863;DHT22;30597;49.628;10.850;2023-05-16T00:18:05;22.40;56.20
44863;DHT22;30597;49.628;10.850;2023-05-16T00:20:30;22.30;56.10
44863;DHT22;30597;49.628;10.850;2023-05-16T00:22:56;22.30;56.10
44863;DHT22;30597;49.628;10.850;2023-05-16T00:25:25;22.30;56.20
44863;DHT22;30597;49.628;10.850;2023-05-16T00:27:51;22.30;56.20
44863;DHT22;30597;49.628;10.850;2023-05-16T00:30:16;22.30;56.30
44863;DHT22;30597;49.628;10.850;2023-05-16T00:32:42;22.30;56.40
44863;DHT22;30597;49.628;10.850;2023-05-16T00:35:08;22.30;56.70
44863;DHT22;30597;49.628;10.850;2023-05-16T00:37:36;22.30;56.40
44863;DHT22;30597;49.628;10.850;2023-05-16T00:40:02;22.30;56.50
44863;DHT22;30597;49.628;10.850;2023-05-16T00:42:27;22.30;56.50
44863;DHT22;30597;49.628;10.850;2023-05-16T00:44:53;22.40;56.70
44863;DHT22;30597;49.628;10.850;2023-05-16T00:47:18;22.30;56.60
44863;DHT22;30597;49.628;10.850;2023-05-16T00:49:44;22.40;56.70
44863;DHT22;30597;49.628;10.850;2023-05-16T00:52:10;22.20;56.70
44863;DHT22;30597;49.628;10.850;2023-05-16T00:54:35;22.20;56.60
44863;DHT22;30597;49.628;10.850;2023-05-16T00:57:02;22.30;56.90
44863;DHT22;30597;49.628;10.850;2023-05-16T00:59:28;22.30;56.80
44863;DHT22;30597;49.628;10.850;2023-05-16T01:01:54;22.30;56.70
44863;DHT22;30597;49.628;10.850;2023-05-16T01:04:21;22.30;56.70
44863;DHT22;30597;49.628;10.850;2023-05-16T01:06:46;22.40;56.90
44863;DHT22;30597;49.628;10.850;2023-05-16T01:09:12;22.30;56.70
44863;DHT22;30597;49.628;10.850;2023-05-16T01:11:47;22.30;56.60
44863;DHT22;30597;49.628;10.850;2023-05-16T01:14:50;22.30;56.90
44863;DHT22;30597;49.628;10.850;2023-05-16T01:17:23;22.30;57.00
44863;DHT22;30597;49.628;10.850;2023-05-16T01:23:23;22.30;56.90
44863;DHT22;30597;49.628;10.850;2023-05-16T01:28:10;22.30;56.80
44863;DHT22;30597;49.628;10.850;2023-05-16T01:30:39;22.30;57.10
44863;DHT22;30597;49.628;10.850;2023-05-16T01:33:08;22.30;56.80
44863;DHT22;30597;49.628;10.850;2023-05-16T01:38:28;22.30;56.90
44863;DHT22;30597;49.628;10.850;2023-05-16T01:41:02;22.30;56.90
44863;DHT22;30597;49.628;10.850;2023-05-16T01:43:33;22.20;56.90
44863;DHT22;30597;49.628;10.850;2023-05-16T01:46:08;22.20;56.90
44863;DHT22;30597;49.628;10.850;2023-05-16T01:48:38;22.30;57.10
44863;DHT22;30597;49.628;10.850;2023-05-16T01:51:07;22.20;56.90
44863;DHT22;30597;49.628;10.850;2023-05-16T01:53:37;22.20;56.90
44863;DHT22;30597;49.628;10.850;2023-05-16T01:56:03;22.20;56.80
44863;DHT22;30597;49.628;10.850;2023-05-16T01:58:33;22.30;56.90
44863;DHT22;30597;49.628;10.850;2023-05-16T02:01:02;22.20;56.80
44863;DHT22;30597;49.628;10.850;2023-05-16T02:03:29;22.20;56.90
44863;DHT22;30597;49.628;10.850;2023-05-16T02:05:56;22.20;56.90
44863;DHT22;30597;49.628;10.850;2023-05-16T02:08:22;22.20;56.90
44863;DHT22;30597;49.628;10.850;2023-05-16T02:10:47;22.20;57.10
44863;DHT22;30597;49.628;10.850;2023-05-16T02:13:13;22.20;57.00
44863;DHT22;30597;49.628;10.850;2023-05-16T02:15:38;22.20;57.00
44863;DHT22;30597;49.628;10.850;2023-05-16T02:18:04;22.20;57.00
44863;DHT22;30597;49.628;10.850;2023-05-16T02:20:30;22.10;56.80
44863;DHT22;30597;49.628;10.850;2023-05-16T02:22:55;22.10;56.90
44863;DHT22;30597;49.628;10.850;2023-05-16T02:25:21;22.10;56.90
44863;DHT22;30597;49.628;10.850;2023-05-16T02:27:47;22.10;56.90
44863;DHT22;30597;49.628;10.850;2023-05-16T02:30:13;22.10;57.00
44863;DHT22;30597;49.628;10.850;2023-05-16T02:32:39;22.10;57.10
44863;DHT22;30597;49.628;10.850;2023-05-16T02:35:06;22.10;57.10
44863;DHT22;30597;49.628;10.850;2023-05-16T02:37:32;22.00;57.10
44863;DHT22;30597;49.628;10.850;2023-05-16T02:39:58;22.00;57.10
44863;DHT22;30597;49.628;10.850;2023-05-16T02:42:25;22.00;57.00
44863;DHT22;30597;49.628;10.850;2023-05-16T02:44:52;22.00;57.10
44863;DHT22;30597;49.628;10.850;2023-05-16T02:47:17;22.00;57.10
44863;DHT22;30597;49.628;10.850;2023-05-16T02:49:43;22.00;57.10
44863;DHT22;30597;49.628;10.850;2023-05-16T02:52:08;22.00;57.20
44863;DHT22;30597;49.628;10.850;2023-05-16T02:54:34;22.00;57.30
44863;DHT22;30597;49.628;10.850;2023-05-16T02:57:00;22.00;57.20
44863;DHT22;30597;49.628;10.850;2023-05-16T02:59:25;22.00;57.10
44863;DHT22;30597;49.628;10.850;2023-05-16T03:01:51;22.00;57.20
44863;DHT22;30597;49.628;10.850;2023-05-16T03:04:17;22.00;57.20
44863;DHT22;30597;49.628;10.850;2023-05-16T03:06:42;22.00;57.30
44863;DHT22;30597;49.628;10.850;2023-05-16T03:09:08;21.90;57.20
44863;DHT22;30597;49.628;10.850;2023-05-16T03:11:34;21.90;57.10
44863;DHT22;30597;49.628;10.850;2023-05-16T03:14:00;22.00;57.30
44863;DHT22;30597;49.628;10.850;2023-05-16T03:16:25;21.90;57.20
44863;DHT22;30597;49.628;10.850;2023-05-16T03:18:51;21.90;57.10
44863;DHT22;30597;49.628;10.850;2023-05-16T03:21:16;21.90;57.20
44863;DHT22;30597;49.628;10.850;2023-05-16T03:23:42;21.90;57.30
44863;DHT22;30597;49.628;10.850;2023-05-16T03:26:08;21.90;57.20
44863;DHT22;30597;49.628;10.850;2023-05-16T03:28:33;21.90;57.30
44863;DHT22;30597;49.628;10.850;2023-05-16T03:30:59;21.90;57.30
44863;DHT22;30597;49.628;10.850;2023-05-16T03:33:24;21.90;57.20
44863;DHT22;30597;49.628;10.850;2023-05-16T03:35:50;21.90;57.30
44863;DHT22;30597;49.628;10.850;2023-05-16T03:38:16;21.90;57.20
44863;DHT22;30597;49.628;10.850;2023-05-16T03:40:42;21.90;57.30
44863;DHT22;30597;49.628;10.850;2023-05-16T03:43:07;21.90;57.80
44863;DHT22;30597;49.628;10.850;2023-05-16T03:45:33;21.90;57.30
44863;DHT22;30597;49.628;10.850;2023-05-16T03:47:59;22.00;57.40
44863;DHT22;30597;49.628;10.850;2023-05-16T03:50:24;21.90;57.30
44863;DHT22;30597;49.628;10.850;2023-05-16T03:52:50;21.80;57.30
44863;DHT22;30597;49.628;10.850;2023-05-16T03:55:17;21.90;57.50
44863;DHT22;30597;49.628;10.850;2023-05-16T03:57:42;21.90;57.40
44863;DHT22;30597;49.628;10.850;2023-05-16T04:00:09;21.90;57.50
44863;DHT22;30597;49.628;10.850;2023-05-16T04:02:37;21.90;57.60
44863;DHT22;30597;49.628;10.850;2023-05-16T04:05:04;21.90;57.60
44863;DHT22;30597;49.628;10.850;2023-05-16T04:07:29;21.90;57.50
44863;DHT22;30597;49.628;10.850;2023-05-16T04:09:55;21.90;57.60
44863;DHT22;30597;49.628;10.850;2023-05-16T04:12:22;21.90;57.60
44863;DHT22;30597;49.628;10.850;2023-05-16T04:14:48;21.90;57.50
44863;DHT22;30597;49.628;10.850;2023-05-16T04:17:14;21.80;57.50
44863;DHT22;30597;49.628;10.850;2023-05-16T04:19:39;21.90;57.50
44863;DHT22;30597;49.628;10.850;2023-05-16T04:22:05;21.90;57.50
44863;DHT22;30597;49.628;10.850;2023-05-16T04:24:32;21.90;57.60
44863;DHT22;30597;49.628;10.850;2023-05-16T04:26:57;21.90;57.60
44863;DHT22;30597;49.628;10.850;2023-05-16T04:29:23;21.90;57.50
44863;DHT22;30597;49.628;10.850;2023-05-16T04:31:49;21.90;57.60
44863;DHT22;30597;49.628;10.850;2023-05-16T04:34:14;21.90;57.60
44863;DHT22;30597;49.628;10.850;2023-05-16T04:36:40;22.00;57.70
44863;DHT22;30597;49.628;10.850;2023-05-16T04:39:07;21.90;57.60
44863;DHT22;30597;49.628;10.850;2023-05-16T04:41:33;21.90;57.60
44863;DHT22;30597;49.628;10.850;2023-05-16T04:44:01;21.90;57.60
44863;DHT22;30597;49.628;10.850;2023-05-16T04:46:28;21.90;57.70
44863;DHT22;30597;49.628;10.850;2023-05-16T04:48:54;21.80;57.60
44863;DHT22;30597;49.628;10.850;2023-05-16T04:51:19;21.80;57.50
44863;DHT22;30597;49.628;10.850;2023-05-16T04:53:46;21.90;57.60
44863;DHT22;30597;49.628;10.850;2023-05-16T04:56:12;21.80;57.60
44863;DHT22;30597;49.628;10.850;2023-05-16T04:58:37;21.80;57.60
44863;DHT22;30597;49.628;10.850;2023-05-16T05:01:04;21.80;57.50
44863;DHT22;30597;49.628;10.850;2023-05-16T05:03:29;21.90;57.70
44863;DHT22;30597;49.628;10.850;2023-05-16T05:05:55;21.80;57.60
44863;DHT22;30597;49.628;10.850;2023-05-16T05:08:21;21.80;57.60
44863;DHT22;30597;49.628;10.850;2023-05-16T05:10:47;21.80;57.60
44863;DHT22;30597;49.628;10.850;2023-05-16T05:13:12;21.90;57.70
44863;DHT22;30597;49.628;10.850;2023-05-16T05:15:38;21.80;57.70
44863;DHT22;30597;49.628;10.850;2023-05-16T05:18:04;21.80;57.60
44863;DHT22;30597;49.628;10.850;2023-05-16T05:20:29;21.80;57.60
44863;DHT22;30597;49.628;10.850;2023-05-16T05:22:55;21.90;57.80
44863;DHT22;30597;49.628;10.850;2023-05-16T05:25:21;21.90;57.70
44863;DHT22;30597;49.628;10.850;2023-05-16T05:27:47;22.00;57.80
44863;DHT22;30597;49.628;10.850;2023-05-16T05:30:12;21.80;57.60
44863;DHT22;30597;49.628;10.850;2023-05-16T05:32:38;21.90;57.50
44863;DHT22;30597;49.628;10.850;2023-05-16T05:35:04;21.80;57.50
44863;DHT22;30597;49.628;10.850;2023-05-16T05:37:30;21.80;57.40
44863;DHT22;30597;49.628;10.850;2023-05-16T05:39:56;21.80;57.40
44863;DHT22;30597;49.628;10.850;2023-05-16T05:42:21;21.80;57.30
44863;DHT22;30597;49.628;10.850;2023-05-16T05:44:47;21.80;57.20
44863;DHT22;30597;49.628;10.850;2023-05-16T05:47:13;21.80;57.20
44863;DHT22;30597;49.628;10.850;2023-05-16T05:49:39;21.70;57.20
44863;DHT22;30597;49.628;10.850;2023-05-16T05:52:04;21.80;57.30
44863;DHT22;30597;49.628;10.850;2023-05-16T05:54:30;21.90;57.30
44863;DHT22;30597;49.628;10.850;2023-05-16T05:56:56;21.90;57.30
44863;DHT22;30597;49.628;10.850;2023-05-16T05:59:22;22.00;57.30
44863;DHT22;30597;49.628;10.850;2023-05-16T06:01:48;22.00;57.30
44863;DHT22;30597;49.628;10.850;2023-05-16T06:04:17;22.00;57.20
44863;DHT22;30597;49.628;10.850;2023-05-16T06:06:43;22.00;57.30
44863;DHT22;30597;49.628;10.850;2023-05-16T06:09:08;22.20;57.50
44863;DHT22;30597;49.628;10.850;2023-05-16T06:11:34;22.30;57.40
44863;DHT22;30597;49.628;10.850;2023-05-16T06:13:59;22.40;57.20
44863;DHT22;30597;49.628;10.850;2023-05-16T06:16:25;22.40;57.20
44863;DHT22;30597;49.628;10.850;2023-05-16T06:18:51;22.50;57.40
44863;DHT22;30597;49.628;10.850;2023-05-16T06:21:16;22.60;57.30
44863;DHT22;30597;49.628;10.850;2023-05-16T06:23:42;22.60;57.30
44863;DHT22;30597;49.628;10.850;2023-05-16T06:26:08;22.70;57.20
44863;DHT22;30597;49.628;10.850;2023-05-16T06:28:33;22.70;57.20
44863;DHT22;30597;49.628;10.850;2023-05-16T06:30:59;22.70;57.00
44863;DHT22;30597;49.628;10.850;2023-05-16T06:33:24;22.70;57.20
44863;DHT22;30597;49.628;10.850;2023-05-16T06:35:50;22.80;57.10
44863;DHT22;30597;49.628;10.850;2023-05-16T06:38:17;22.80;57.00
44863;DHT22;30597;49.628;10.850;2023-05-16T06:40:44;22.80;57.10
44863;DHT22;30597;49.628;10.850;2023-05-16T06:43:10;22.80;56.80
44863;DHT22;30597;49.628;10.850;2023-05-16T06:45:36;23.00;57.20
44863;DHT22;30597;49.628;10.850;2023-05-16T06:48:02;22.90;56.90
44863;DHT22;30597;49.628;10.850;2023-05-16T06:50:28;22.90;57.00
44863;DHT22;30597;49.628;10.850;2023-05-16T06:52:54;22.80;56.90
44863;DHT22;30597;49.628;10.850;2023-05-16T06:55:19;22.90;56.80
44863;DHT22;30597;49.628;10.850;2023-05-16T06:57:45;22.90;57.60
44863;DHT22;30597;49.628;10.850;2023-05-16T07:00:11;23.00;57.20
44863;DHT22;30597;49.628;10.850;2023-05-16T07:02:37;22.90;57.00
44863;DHT22;30597;49.628;10.850;2023-05-16T07:05:02;23.00;57.10
44863;DHT22;30597;49.628;10.850;2023-05-16T07:07:28;23.00;57.10
44863;DHT22;30597;49.628;10.850;2023-05-16T07:09:54;23.10;57.10
44863;DHT22;30597;49.628;10.850;2023-05-16T07:12:19;23.00;56.90
44863;DHT22;30597;49.628;10.850;2023-05-16T07:14:45;22.90;56.90
44863;DHT22;30597;49.628;10.850;2023-05-16T07:17:12;23.00;57.10
44863;DHT22;30597;49.628;10.850;2023-05-16T07:19:37;23.00;56.90
44863;DHT22;30597;49.628;10.850;2023-05-16T07:22:03;23.00;56.90
44863;DHT22;30597;49.628;10.850;2023-05-16T07:24:29;23.00;56.90
44863;DHT22;30597;49.628;10.850;2023-05-16T07:26:54;23.00;56.90
44863;DHT22;30597;49.628;10.850;2023-05-16T07:29:20;23.00;56.90
44863;DHT22;30597;49.628;10.850;2023-05-16T07:31:45;23.00;56.80
44863;DHT22;30597;49.628;10.850;2023-05-16T07:34:11;23.00;56.90
44863;DHT22;30597;49.628;10.850;2023-05-16T07:36:37;23.00;56.80
44863;DHT22;30597;49.628;10.850;2023-05-16T07:39:03;23.00;56.90
44863;DHT22;30597;49.628;10.850;2023-05-16T07:41:29;23.00;56.80
44863;DHT22;30597;49.628;10.850;2023-05-16T07:43:55;23.10;56.80
44863;DHT22;30597;49.628;10.850;2023-05-16T07:46:20;23.00;56.60
44863;DHT22;30597;49.628;10.850;2023-05-16T07:48:46;23.10;56.60
44863;DHT22;30597;49.628;10.850;2023-05-16T07:51:12;23.00;56.70
44863;DHT22;30597;49.628;10.850;2023-05-16T07:53:39;23.10;56.70
44863;DHT22;30597;49.628;10.850;2023-05-16T07:56:05;23.00;56.30
44863;DHT22;30597;49.628;10.850;2023-05-16T07:58:31;23.10;56.70
44863;DHT22;30597;49.628;10.850;2023-05-16T08:00:57;23.10;56.70
44863;DHT22;30597;49.628;10.850;2023-05-16T08:03:23;23.20;56.60
44863;DHT22;30597;49.628;10.850;2023-05-16T08:05:48;23.00;56.50
44863;DHT22;30597;49.628;10.850;2023-05-16T08:08:14;23.10;56.10
44863;DHT22;30597;49.628;10.850;2023-05-16T08:10:40;23.00;56.20
44863;DHT22;30597;49.628;10.850;2023-05-16T08:13:05;23.10;56.10
44863;DHT22;30597;49.628;10.850;2023-05-16T08:15:31;23.10;56.40
44863;DHT22;30597;49.628;10.850;2023-05-16T08:17:57;23.10;56.30
44863;DHT22;30597;49.628;10.850;2023-05-16T08:20:24;23.00;56.50
44863;DHT22;30597;49.628;10.850;2023-05-16T08:22:50;23.00;56.40
44863;DHT22;30597;49.628;10.850;2023-05-16T08:25:16;23.00;56.50
44863;DHT22;30597;49.628;10.850;2023-05-16T08:27:44;23.00;56.40
44863;DHT22;30597;49.628;10.850;2023-05-16T08:30:10;23.10;56.60
44863;DHT22;30597;49.628;10.850;2023-05-16T08:32:37;23.00;56.50
44863;DHT22;30597;49.628;10.850;2023-05-16T08:35:03;23.00;56.40
44863;DHT22;30597;49.628;10.850;2023-05-16T08:37:28;23.00;56.40
44863;DHT22;30597;49.628;10.850;2023-05-16T08:39:54;23.00;56.50
44863;DHT22;30597;49.628;10.850;2023-05-16T08:42:19;23.00;56.50
44863;DHT22;30597;49.628;10.850;2023-05-16T08:44:45;23.00;57.10
44863;DHT22;30597;49.628;10.850;2023-05-16T08:47:14;23.00;56.40
44863;DHT22;30597;49.628;10.850;2023-05-16T08:49:43;23.00;56.60
44863;DHT22;30597;49.628;10.850;2023-05-16T08:52:09;22.90;56.30
44863;DHT22;30597;49.628;10.850;2023-05-16T08:54:36;23.00;56.40
44863;DHT22;30597;49.628;10.850;2023-05-16T08:57:02;22.90;56.60
44863;DHT22;30597;49.628;10.850;2023-05-16T08:59:28;22.90;56.50
44863;DHT22;30597;49.628;10.850;2023-05-16T09:01:55;22.90;56.60
44863;DHT22;30597;49.628;10.850;2023-05-16T09:04:21;23.00;56.70
44863;DHT22;30597;49.628;10.850;2023-05-16T09:06:49;23.00;56.70
44863;DHT22;30597;49.628;10.850;2023-05-16T09:09:15;23.00;56.70
44863;DHT22;30597;49.628;10.850;2023-05-16T09:11:41;23.00;57.20
44863;DHT22;30597;49.628;10.850;2023-05-16T09:14:07;23.00;56.50
44863;DHT22;30597;49.628;10.850;2023-05-16T09:16:32;23.00;56.40
44863;DHT22;30597;49.628;10.850;2023-05-16T09:18:59;23.10;56.30
44863;DHT22;30597;49.628;10.850;2023-05-16T09:21:31;23.10;56.50
44863;DHT22;30597;49.628;10.850;2023-05-16T09:24:05;23.10;56.40
44863;DHT22;30597;49.628;10.850;2023-05-16T09:26:35;23.10;56.40
44863;DHT22;30597;49.628;10.850;2023-05-16T09:29:01;23.10;56.00
44863;DHT22;30597;49.628;10.850;2023-05-16T09:31:34;23.20;56.10
44863;DHT22;30597;49.628;10.850;2023-05-16T09:34:06;23.10;56.00
44863;DHT22;30597;49.628;10.850;2023-05-16T09:36:32;23.20;56.00
44863;DHT22;30597;49.628;10.850;2023-05-16T09:38:59;23.20;55.80
44863;DHT22;30597;49.628;10.850;2023-05-16T09:41:25;23.20;55.80
44863;DHT22;30597;49.628;10.850;2023-05-16T09:43:51;23.20;55.80
44863;DHT22;30597;49.628;10.850;2023-05-16T09:46:16;23.20;55.50
44863;DHT22;30597;49.628;10.850;2023-05-16T09:48:47;23.30;55.90
44863;DHT22;30597;49.628;10.850;2023-05-16T09:51:13;23.30;55.90
44863;DHT22;30597;49.628;10.850;2023-05-16T09:53:40;23.30;56.50
44863;DHT22;30597;49.628;10.850;2023-05-16T09:56:14;23.30;55.50
44863;DHT22;30597;49.628;10.850;2023-05-16T09:58:41;23.30;55.80
44863;DHT22;30597;49.628;10.850;2023-05-16T10:01:08;23.30;55.80
44863;DHT22;30597;49.628;10.850;2023-05-16T10:03:36;23.40;55.80
44863;DHT22;30597;49.628;10.850;2023-05-16T10:06:03;23.30;55.10
44863;DHT22;30597;49.628;10.850;2023-05-16T10:08:31;23.30;55.20
44863;DHT22;30597;49.628;10.850;2023-05-16T10:10:57;23.30;55.30
44863;DHT22;30597;49.628;10.850;2023-05-16T10:13:33;23.30;54.90
44863;DHT22;30597;49.628;10.850;2023-05-16T10:16:04;23.30;55.10
44863;DHT22;30597;49.628;10.850;2023-05-16T10:18:31;23.40;55.10
44863;DHT22;30597;49.628;10.850;2023-05-16T10:21:03;23.30;54.80
44863;DHT22;30597;49.628;10.850;2023-05-16T10:23:30;23.30;55.00
44863;DHT22;30597;49.628;10.850;2023-05-16T10:25:57;23.30;54.60
44863;DHT22;30597;49.628;10.850;2023-05-16T10:28:23;23.30;54.40
44863;DHT22;30597;49.628;10.850;2023-05-16T10:30:50;23.20;54.40
44863;DHT22;30597;49.628;10.850;2023-05-16T10:33:17;23.30;54.40
44863;DHT22;30597;49.628;10.850;2023-05-16T10:35:44;23.30;54.60
44863;DHT22;30597;49.628;10.850;2023-05-16T10:38:12;23.30;54.30
44863;DHT22;30597;49.628;10.850;2023-05-16T10:40:39;23.30;54.10
44863;DHT22;30597;49.628;10.850;2023-05-16T10:43:06;23.30;54.00
44863;DHT22;30597;49.628;10.850;2023-05-16T10:45:33;23.30;53.90
44863;DHT22;30597;49.628;10.850;2023-05-16T10:48:04;23.10;54.10
44863;DHT22;30597;49.628;10.850;2023-05-16T10:55:38;23.30;54.00
44863;DHT22;30597;49.628;10.850;2023-05-16T10:58:04;23.30;54.00
44863;DHT22;30597;49.628;10.850;2023-05-16T11:00:29;23.30;54.10
44863;DHT22;30597;49.628;10.850;2023-05-16T11:03:04;23.30;53.90
44863;DHT22;30597;49.628;10.850;2023-05-16T11:05:30;23.40;54.00
44863;DHT22;30597;49.628;10.850;2023-05-16T11:08:04;23.30;53.60
44863;DHT22;30597;49.628;10.850;2023-05-16T11:10:30;23.40;53.80
44863;DHT22;30597;49.628;10.850;2023-05-16T11:13:02;23.40;54.10
44863;DHT22;30597;49.628;10.850;2023-05-16T11:15:31;23.40;54.10
44863;DHT22;30597;49.628;10.850;2023-05-16T11:18:13;23.40;54.00
44863;DHT22;30597;49.628;10.850;2023-05-16T11:20:39;23.40;54.00
44863;DHT22;30597;49.628;10.850;2023-05-16T11:23:20;23.30;54.10
44863;DHT22;30597;49.628;10.850;2023-05-16T11:25:51;23.40;54.10
44863;DHT22;30597;49.628;10.850;2023-05-16T11:28:17;23.50;54.20
44863;DHT22;30597;49.628;10.850;2023-05-16T11:30:49;23.40;54.00
44863;DHT22;30597;49.628;10.850;2023-05-16T11:33:16;23.40;54.40
44863;DHT22;30597;49.628;10.850;2023-05-16T11:35:42;23.50;54.10
44863;DHT22;30597;49.628;10.850;2023-05-16T11:38:12;23.60;53.80
44863;DHT22;30597;49.628;10.850;2023-05-16T11:40:44;23.50;54.30
44863;DHT22;30597;49.628;10.850;2023-05-16T11:43:10;23.60;53.60
44863;DHT22;30597;49.628;10.850;2023-05-16T11:45:36;23.60;53.70
44863;DHT22;30597;49.628;10.850;2023-05-16T11:48:02;23.60;53.40
44863;DHT22;30597;49.628;10.850;2023-05-16T11:50:29;23.60;53.70
44863;DHT22;30597;49.628;10.850;2023-05-16T11:52:55;23.60;53.70
44863;DHT22;30597;49.628;10.850;2023-05-16T11:55:30;23.60;53.90
44863;DHT22;30597;49.628;10.850;2023-05-16T11:57:59;23.50;53.90
44863;DHT22;30597;49.628;10.850;2023-05-16T12:00:26;23.70;53.90
44863;DHT22;30597;49.628;10.850;2023-05-16T12:02:59;23.60;53.60
44863;DHT22;30597;49.628;10.850;2023-05-16T12:05:26;23.60;53.70
44863;DHT22;30597;49.628;10.850;2023-05-16T12:07:53;23.70;53.80
44863;DHT22;30597;49.628;10.850;2023-05-16T12:10:18;23.70;53.10
44863;DHT22;30597;49.628;10.850;2023-05-16T12:12:47;23.70;53.00
44863;DHT22;30597;49.628;10.850;2023-05-16T12:15:13;23.70;53.60
44863;DHT22;30597;49.628;10.850;2023-05-16T12:17:40;23.70;53.90
44863;DHT22;30597;49.628;10.850;2023-05-16T12:20:09;23.80;54.00
44863;DHT22;30597;49.628;10.850;2023-05-16T12:22:43;23.70;53.20
44863;DHT22;30597;49.628;10.850;2023-05-16T12:25:30;23.70;53.20
44863;DHT22;30597;49.628;10.850;2023-05-16T12:27:58;23.70;53.30
44863;DHT22;30597;49.628;10.850;2023-05-16T12:30:25;23.90;53.30
44863;DHT22;30597;49.628;10.850;2023-05-16T12:33:13;23.80;53.20
44863;DHT22;30597;49.628;10.850;2023-05-16T12:35:40;23.70;53.00
44863;DHT22;30597;49.628;10.850;2023-05-16T12:38:11;23.70;52.70
44863;DHT22;30597;49.628;10.850;2023-05-16T12:40:39;23.70;53.10
44863;DHT22;30597;49.628;10.850;2023-05-16T12:43:15;23.70;52.90
44863;DHT22;30597;49.628;10.850;2023-05-16T12:45:42;23.70;53.10
44863;DHT22;30597;49.628;10.850;2023-05-16T12:48:13;23.70;52.70
44863;DHT22;30597;49.628;10.850;2023-05-16T12:50:39;23.80;52.80
44863;DHT22;30597;49.628;10.850;2023-05-16T12:53:10;23.80;53.00
44863;DHT22;30597;49.628;10.850;2023-05-16T12:55:37;23.70;52.60
44863;DHT22;30597;49.628;10.850;2023-05-16T12:58:02;23.80;52.40
44863;DHT22;30597;49.628;10.850;2023-05-16T13:00:28;23.70;52.10
44863;DHT22;30597;49.628;10.850;2023-05-16T13:02:54;23.80;52.80
44863;DHT22;30597;49.628;10.850;2023-05-16T13:05:19;23.70;52.60
44863;DHT22;30597;49.628;10.850;2023-05-16T13:07:48;23.70;52.80
44863;DHT22;30597;49.628;10.850;2023-05-16T13:10:17;23.70;52.40
44863;DHT22;30597;49.628;10.850;2023-05-16T13:12:42;23.70;52.70
44863;DHT22;30597;49.628;10.850;2023-05-16T13:15:09;23.70;52.50
44863;DHT22;30597;49.628;10.850;2023-05-16T13:17:40;23.80;52.90
44863;DHT22;30597;49.628;10.850;2023-05-16T13:20:11;23.80;52.70
44863;DHT22;30597;49.628;10.850;2023-05-16T13:22:39;23.80;52.50
44863;DHT22;30597;49.628;10.850;2023-05-16T13:25:05;23.80;52.40
44863;DHT22;30597;49.628;10.850;2023-05-16T13:27:31;23.70;52.40
44863;DHT22;30597;49.628;10.850;2023-05-16T13:29:57;23.70;52.60
44863;DHT22;30597;49.628;10.850;2023-05-16T13:32:23;23.80;52.30
44863;DHT22;30597;49.628;10.850;2023-05-16T13:34:49;23.70;52.50
44863;DHT22;30597;49.628;10.850;2023-05-16T13:37:16;23.80;52.10
44863;DHT22;30597;49.628;10.850;2023-05-16T13:39:41;23.80;52.10
44863;DHT22;30597;49.628;10.850;2023-05-16T13:42:07;23.90;52.90
44863;DHT22;30597;49.628;10.850;2023-05-16T13:44:33;23.80;52.10
44863;DHT22;30597;49.628;10.850;2023-05-16T13:46:59;23.80;52.20
44863;DHT22;30597;49.628;10.850;2023-05-16T13:49:25;23.80;52.50
44863;DHT22;30597;49.628;10.850;2023-05-16T13:51:51;23.80;52.10
44863;DHT22;30597;49.628;10.850;2023-05-16T13:54:17;23.70;52.40
44863;DHT22;30597;49.628;10.850;2023-05-16T13:56:44;23.80;52.60
44863;DHT22;30597;49.628;10.850;2023-05-16T13:59:09;23.80;52.50
44863;DHT22;30597;49.628;10.850;2023-05-16T14:01:35;23.80;51.50
44863;DHT22;30597;49.628;10.850;2023-05-16T14:04:01;23.90;51.60
44863;DHT22;30597;49.628;10.850;2023-05-16T14:06:27;23.80;51.90
44863;DHT22;30597;49.628;10.850;2023-05-16T14:08:53;23.80;51.80
44863;DHT22;30597;49.628;10.850;2023-05-16T14:11:18;23.80;52.10
44863;DHT22;30597;49.628;10.850;2023-05-16T14:13:47;23.80;52.30
44863;DHT22;30597;49.628;10.850;2023-05-16T14:16:13;23.70;52.80
44863;DHT22;30597;49.628;10.850;2023-05-16T14:18:39;23.70;52.90
44863;DHT22;30597;49.628;10.850;2023-05-16T14:21:05;23.70;52.70
44863;DHT22;30597;49.628;10.850;2023-05-16T14:23:30;23.70;52.80
44863;DHT22;30597;49.628;10.850;2023-05-16T14:25:56;23.70;53.20
44863;DHT22;30597;49.628;10.850;2023-05-16T14:28:21;23.70;53.00
44863;DHT22;30597;49.628;10.850;2023-05-16T14:30:47;23.70;53.10
44863;DHT22;30597;49.628;10.850;2023-05-16T14:33:12;23.70;52.80
44863;DHT22;30597;49.628;10.850;2023-05-16T14:35:39;23.70;53.10
44863;DHT22;30597;49.628;10.850;2023-05-16T14:38:05;23.70;52.70
44863;DHT22;30597;49.628;10.850;2023-05-16T14:40:31;23.70;52.80
44863;DHT22;30597;49.628;10.850;2023-05-16T14:42:58;23.70;54.00
44863;DHT22;30597;49.628;10.850;2023-05-16T14:45:24;23.60;53.30
44863;DHT22;30597;49.628;10.850;2023-05-16T14:47:50;23.60;52.80
44863;DHT22;30597;49.628;10.850;2023-05-16T14:50:16;23.70;52.90
44863;DHT22;30597;49.628;10.850;2023-05-16T14:52:42;23.60;52.60
44863;DHT22;30597;49.628;10.850;2023-05-16T14:55:07;23.60;52.70
44863;DHT22;30597;49.628;10.850;2023-05-16T14:57:33;23.50;52.90
44863;DHT22;30597;49.628;10.850;2023-05-16T14:59:59;23.50;53.10
44863;DHT22;30597;49.628;10.850;2023-05-16T15:02:24;23.50;52.90
44863;DHT22;30597;49.628;10.850;2023-05-16T15:04:51;23.40;53.10
44863;DHT22;30597;49.628;10.850;2023-05-16T15:07:17;23.50;53.10
44863;DHT22;30597;49.628;10.850;2023-05-16T15:09:43;23.40;54.20
44863;DHT22;30597;49.628;10.850;2023-05-16T15:12:08;23.40;53.50
44863;DHT22;30597;49.628;10.850;2023-05-16T15:14:34;23.40;53.00
44863;DHT22;30597;49.628;10.850;2023-05-16T15:17:00;23.40;53.20
44863;DHT22;30597;49.628;10.850;2023-05-16T15:19:25;23.30;53.30
44863;DHT22;30597;49.628;10.850;2023-05-16T15:21:51;23.30;53.90
44863;DHT22;30597;49.628;10.850;2023-05-16T15:24:16;23.30;53.10
44863;DHT22;30597;49.628;10.850;2023-05-16T15:26:42;23.40;53.10